sensor_id;sensor_type;location;lat;lon;timestamp;P1;durP1;ratioP1;P2;durP2;ratioP2
76729;SDS011;65653;53.106;18.046;2023-04-26T00:00:28;10.00;;;2.60;;
76729;SDS011;65653;53.106;18.046;2023-04-26T00:03:12;8.30;;;3.00;;
76729;SDS011;65653;53.106;18.046;2023-04-26T00:05:38;8.50;;;2.50;;
76729;SDS011;65653;53.106;18.046;2023-04-26T00:08:06;9.00;;;2.70;;
76729;SDS011;65653;53.106;18.046;2023-04-26T00:10:32;11.40;;;2.50;;
76729;SDS011;65653;53.106;18.046;2023-04-26T00:12:59;7.80;;;2.40;;
76729;SDS011;65653;53.106;18.046;2023-04-26T00:15:25;10.20;;;2.60;;
76729;SDS011;65653;53.106;18.046;2023-04-26T00:17:52;5.90;;;2.30;;
76729;SDS011;65653;53.106;18.046;2023-04-26T00:20:19;8.20;;;2.70;;
76729;SDS011;65653;53.106;18.046;2023-04-26T00:22:46;5.60;;;1.80;;
76729;SDS011;65653;53.106;18.046;2023-04-26T00:25:13;9.50;;;2.80;;
76729;SDS011;65653;53.106;18.046;2023-04-26T00:27:39;7.70;;;2.50;;
76729;SDS011;65653;53.106;18.046;2023-04-26T00:30:06;8.30;;;2.30;;
76729;SDS011;65653;53.106;18.046;2023-04-26T00:32:34;5.70;;;1.90;;
76729;SDS011;65653;53.106;18.046;2023-04-26T00:35:02;7.10;;;2.20;;
76729;SDS011;65653;53.106;18.046;2023-04-26T00:37:29;4.90;;;2.20;;
76729;SDS011;65653;53.106;18.046;2023-04-26T00:39:56;6.20;;;2.20;;
76729;SDS011;65653;53.106;18.046;2023-04-26T00:42:23;8.20;;;2.50;;
76729;SDS011;65653;53.106;18.046;2023-04-26T00:44:49;7.10;;;2.60;;
76729;SDS011;65653;53.106;18.046;2023-04-26T00:47:20;7.10;;;2.20;;
76729;SDS011;65653;53.106;18.046;2023-04-26T00:49:47;9.30;;;2.80;;
76729;SDS011;65653;53.106;18.046;2023-04-26T00:52:14;6.10;;;2.30;;
76729;SDS011;65653;53.106;18.046;2023-04-26T00:54:41;7.00;;;2.50;;
76729;SDS011;65653;53.106;18.046;2023-04-26T00:57:08;5.90;;;2.20;;
76729;SDS011;65653;53.106;18.046;2023-04-26T00:59:37;4.30;;;2.00;;
76729;SDS011;65653;53.106;18.046;2023-04-26T01:02:04;7.50;;;2.50;;
76729;SDS011;65653;53.106;18.046;2023-04-26T01:04:31;7.80;;;2.50;;
76729;SDS011;65653;53.106;18.046;2023-04-26T01:06:59;6.40;;;2.30;;
76729;SDS011;65653;53.106;18.046;2023-04-26T01:09:27;8.00;;;2.00;;
76729;SDS011;65653;53.106;18.046;2023-04-26T01:11:56;6.10;;;2.20;;
76729;SDS011;65653;53.106;18.046;2023-04-26T01:14:23;7.70;;;1.90;;
76729;SDS011;65653;53.106;18.046;2023-04-26T01:16:50;6.40;;;1.80;;
76729;SDS011;65653;53.106;18.046;2023-04-26T01:19:17;11.50;;;2.60;;
76729;SDS011;65653;53.106;18.046;2023-04-26T01:21:44;3.50;;;1.80;;
76729;SDS011;65653;53.106;18.046;2023-04-26T01:24:11;5.10;;;2.20;;
76729;SDS011;65653;53.106;18.046;2023-04-26T01:26:39;5.60;;;1.80;;
76729;SDS011;65653;53.106;18.046;2023-04-26T01:29:12;5.30;;;1.80;;
76729;SDS011;65653;53.106;18.046;2023-04-26T01:31:46;4.20;;;2.00;;
76729;SDS011;65653;53.106;18.046;2023-04-26T01:34:14;4.10;;;1.50;;
76729;SDS011;65653;53.106;18.046;2023-04-26T01:36:41;5.30;;;2.40;;
76729;SDS011;65653;53.106;18.046;2023-04-26T01:39:07;8.70;;;1.80;;
76729;SDS011;65653;53.106;18.046;2023-04-26T01:41:34;6.40;;;1.50;;
76729;SDS011;65653;53.106;18.046;2023-04-26T01:44:01;3.60;;;1.50;;
76729;SDS011;65653;53.106;18.046;2023-04-26T01:46:27;5.80;;;1.80;;
76729;SDS011;65653;53.106;18.046;2023-04-26T01:48:54;4.00;;;1.80;;
76729;SDS011;65653;53.106;18.046;2023-04-26T01:51:20;5.80;;;2.10;;
76729;SDS011;65653;53.106;18.046;2023-04-26T01:53:47;3.50;;;1.50;;
76729;SDS011;65653;53.106;18.046;2023-04-26T01:56:13;6.00;;;1.80;;
76729;SDS011;65653;53.106;18.046;2023-04-26T01:58:40;3.00;;;1.40;;
76729;SDS011;65653;53.106;18.046;2023-04-26T02:01:07;5.40;;;1.90;;
76729;SDS011;65653;53.106;18.046;2023-04-26T02:03:34;2.90;;;1.60;;
76729;SDS011;65653;53.106;18.046;2023-04-26T02:06:01;5.10;;;2.20;;
76729;SDS011;65653;53.106;18.046;2023-04-26T02:08:28;8.10;;;2.60;;
76729;SDS011;65653;53.106;18.046;2023-04-26T02:10:55;7.30;;;2.20;;
76729;SDS011;65653;53.106;18.046;2023-04-26T02:13:22;5.60;;;1.80;;
76729;SDS011;65653;53.106;18.046;2023-04-26T02:15:48;2.90;;;1.70;;
76729;SDS011;65653;53.106;18.046;2023-04-26T02:18:16;8.30;;;2.40;;
76729;SDS011;65653;53.106;18.046;2023-04-26T02:20:46;4.10;;;1.30;;
76729;SDS011;65653;53.106;18.046;2023-04-26T02:23:13;4.60;;;1.40;;
76729;SDS011;65653;53.106;18.046;2023-04-26T02:25:40;5.10;;;1.70;;
76729;SDS011;65653;53.106;18.046;2023-04-26T02:28:07;2.30;;;1.10;;
76729;SDS011;65653;53.106;18.046;2023-04-26T02:30:35;4.80;;;2.10;;
76729;SDS011;65653;53.106;18.046;2023-04-26T02:33:01;5.50;;;1.90;;
76729;SDS011;65653;53.106;18.046;2023-04-26T02:35:28;6.20;;;1.60;;
76729;SDS011;65653;53.106;18.046;2023-04-26T02:37:54;5.30;;;1.30;;
76729;SDS011;65653;53.106;18.046;2023-04-26T02:40:21;9.90;;;1.90;;
76729;SDS011;65653;53.106;18.046;2023-04-26T02:42:48;4.50;;;1.10;;
76729;SDS011;65653;53.106;18.046;2023-04-26T02:45:15;2.50;;;1.20;;
76729;SDS011;65653;53.106;18.046;2023-04-26T02:47:41;5.10;;;1.60;;
76729;SDS011;65653;53.106;18.046;2023-04-26T02:50:08;2.20;;;0.90;;
76729;SDS011;65653;53.106;18.046;2023-04-26T02:52:35;5.50;;;1.40;;
76729;SDS011;65653;53.106;18.046;2023-04-26T02:55:02;6.20;;;1.20;;
76729;SDS011;65653;53.106;18.046;2023-04-26T02:57:30;5.20;;;1.40;;
76729;SDS011;65653;53.106;18.046;2023-04-26T02:59:57;5.70;;;1.60;;
76729;SDS011;65653;53.106;18.046;2023-04-26T03:02:24;5.10;;;1.70;;
76729;SDS011;65653;53.106;18.046;2023-04-26T03:04:51;7.80;;;1.90;;
76729;SDS011;65653;53.106;18.046;2023-04-26T03:07:18;2.80;;;1.30;;
76729;SDS011;65653;53.106;18.046;2023-04-26T03:09:45;5.90;;;1.30;;
76729;SDS011;65653;53.106;18.046;2023-04-26T03:12:11;6.60;;;1.60;;
76729;SDS011;65653;53.106;18.046;2023-04-26T03:14:38;4.90;;;1.90;;
76729;SDS011;65653;53.106;18.046;2023-04-26T03:17:05;5.90;;;2.20;;
76729;SDS011;65653;53.106;18.046;2023-04-26T03:19:31;7.50;;;2.00;;
76729;SDS011;65653;53.106;18.046;2023-04-26T03:21:58;7.10;;;2.70;;
76729;SDS011;65653;53.106;18.046;2023-04-26T03:24:25;4.50;;;2.20;;
76729;SDS011;65653;53.106;18.046;2023-04-26T03:26:52;5.50;;;2.80;;
76729;SDS011;65653;53.106;18.046;2023-04-26T03:29:18;4.20;;;1.50;;
76729;SDS011;65653;53.106;18.046;2023-04-26T03:31:45;2.60;;;1.30;;
76729;SDS011;65653;53.106;18.046;2023-04-26T03:34:11;4.60;;;2.10;;
76729;SDS011;65653;53.106;18.046;2023-04-26T03:36:38;2.30;;;1.10;;
76729;SDS011;65653;53.106;18.046;2023-04-26T03:39:05;2.90;;;1.80;;
76729;SDS011;65653;53.106;18.046;2023-04-26T03:41:32;5.40;;;1.80;;
76729;SDS011;65653;53.106;18.046;2023-04-26T03:43:59;4.70;;;1.80;;
76729;SDS011;65653;53.106;18.046;2023-04-26T03:46:25;4.20;;;2.40;;
76729;SDS011;65653;53.106;18.046;2023-04-26T03:48:52;5.90;;;1.60;;
76729;SDS011;65653;53.106;18.046;2023-04-26T03:51:18;5.20;;;2.00;;
76729;SDS011;65653;53.106;18.046;2023-04-26T03:53:45;5.90;;;1.80;;
76729;SDS011;65653;53.106;18.046;2023-04-26T03:56:14;3.30;;;1.20;;
76729;SDS011;65653;53.106;18.046;2023-04-26T03:58:41;5.40;;;2.00;;
76729;SDS011;65653;53.106;18.046;2023-04-26T04:01:08;7.50;;;2.00;;
76729;SDS011;65653;53.106;18.046;2023-04-26T04:03:34;2.60;;;1.20;;
76729;SDS011;65653;53.106;18.046;2023-04-26T04:06:01;5.20;;;1.70;;
76729;SDS011;65653;53.106;18.046;2023-04-26T04:08:28;7.70;;;1.90;;
76729;SDS011;65653;53.106;18.046;2023-04-26T04:10:55;6.50;;;2.10;;
76729;SDS011;65653;53.106;18.046;2023-04-26T04:13:22;5.80;;;2.40;;
76729;SDS011;65653;53.106;18.046;2023-04-26T04:15:48;8.20;;;2.30;;
76729;SDS011;65653;53.106;18.046;2023-04-26T04:18:14;5.60;;;1.60;;
76729;SDS011;65653;53.106;18.046;2023-04-26T04:20:41;5.40;;;1.40;;
76729;SDS011;65653;53.106;18.046;2023-04-26T04:23:08;5.60;;;1.80;;
76729;SDS011;65653;53.106;18.046;2023-04-26T04:25:35;4.90;;;1.20;;
76729;SDS011;65653;53.106;18.046;2023-04-26T04:28:02;7.60;;;1.60;;
76729;SDS011;65653;53.106;18.046;2023-04-26T04:30:28;5.20;;;1.80;;
76729;SDS011;65653;53.106;18.046;2023-04-26T04:32:56;5.00;;;1.00;;
76729;SDS011;65653;53.106;18.046;2023-04-26T04:35:25;5.50;;;1.30;;
76729;SDS011;65653;53.106;18.046;2023-04-26T04:37:55;4.20;;;1.10;;
76729;SDS011;65653;53.106;18.046;2023-04-26T04:40:22;3.40;;;1.30;;
76729;SDS011;65653;53.106;18.046;2023-04-26T04:42:49;5.70;;;1.20;;
76729;SDS011;65653;53.106;18.046;2023-04-26T04:45:16;5.60;;;1.30;;
76729;SDS011;65653;53.106;18.046;2023-04-26T04:47:43;3.80;;;1.00;;
76729;SDS011;65653;53.106;18.046;2023-04-26T04:50:10;3.30;;;1.00;;
76729;SDS011;65653;53.106;18.046;2023-04-26T04:52:37;1.90;;;0.80;;
76729;SDS011;65653;53.106;18.046;2023-04-26T04:55:03;4.30;;;0.90;;
76729;SDS011;65653;53.106;18.046;2023-04-26T04:57:30;3.90;;;0.90;;
76729;SDS011;65653;53.106;18.046;2023-04-26T04:59:58;2.40;;;1.20;;
76729;SDS011;65653;53.106;18.046;2023-04-26T05:04:56;3.40;;;1.10;;
76729;SDS011;65653;53.106;18.046;2023-04-26T05:07:23;5.30;;;1.10;;
76729;SDS011;65653;53.106;18.046;2023-04-26T05:09:49;4.40;;;1.00;;
76729;SDS011;65653;53.106;18.046;2023-04-26T05:12:16;4.70;;;1.30;;
76729;SDS011;65653;53.106;18.046;2023-04-26T05:14:42;3.00;;;1.30;;
76729;SDS011;65653;53.106;18.046;2023-04-26T05:17:08;3.20;;;0.90;;
76729;SDS011;65653;53.106;18.046;2023-04-26T05:19:35;3.60;;;1.10;;
76729;SDS011;65653;53.106;18.046;2023-04-26T05:22:02;5.60;;;1.10;;
76729;SDS011;65653;53.106;18.046;2023-04-26T05:24:29;3.90;;;0.90;;
76729;SDS011;65653;53.106;18.046;2023-04-26T05:26:57;1.40;;;0.60;;
76729;SDS011;65653;53.106;18.046;2023-04-26T05:29:30;5.30;;;0.90;;
76729;SDS011;65653;53.106;18.046;2023-04-26T05:31:57;0.80;;;0.50;;
76729;SDS011;65653;53.106;18.046;2023-04-26T05:34:24;5.10;;;1.30;;
76729;SDS011;65653;53.106;18.046;2023-04-26T05:36:51;2.70;;;0.70;;
76729;SDS011;65653;53.106;18.046;2023-04-26T05:39:17;1.50;;;0.50;;
76729;SDS011;65653;53.106;18.046;2023-04-26T05:41:47;4.00;;;1.00;;
76729;SDS011;65653;53.106;18.046;2023-04-26T05:44:13;4.60;;;0.90;;
76729;SDS011;65653;53.106;18.046;2023-04-26T05:46:40;2.90;;;0.90;;
76729;SDS011;65653;53.106;18.046;2023-04-26T05:49:06;6.60;;;1.10;;
76729;SDS011;65653;53.106;18.046;2023-04-26T05:51:33;4.30;;;1.00;;
76729;SDS011;65653;53.106;18.046;2023-04-26T05:53:59;2.30;;;0.60;;
76729;SDS011;65653;53.106;18.046;2023-04-26T05:56:26;1.60;;;0.60;;
76729;SDS011;65653;53.106;18.046;2023-04-26T05:58:53;3.10;;;0.80;;
76729;SDS011;65653;53.106;18.046;2023-04-26T06:01:19;6.80;;;1.10;;
76729;SDS011;65653;53.106;18.046;2023-04-26T06:03:46;3.80;;;0.90;;
76729;SDS011;65653;53.106;18.046;2023-04-26T06:06:12;6.20;;;1.50;;
76729;SDS011;65653;53.106;18.046;2023-04-26T06:08:41;4.20;;;1.00;;
76729;SDS011;65653;53.106;18.046;2023-04-26T06:11:08;7.50;;;1.50;;
76729;SDS011;65653;53.106;18.046;2023-04-26T06:13:35;3.70;;;0.90;;
76729;SDS011;65653;53.106;18.046;2023-04-26T06:16:01;5.00;;;1.20;;
76729;SDS011;65653;53.106;18.046;2023-04-26T06:18:28;2.90;;;0.70;;
76729;SDS011;65653;53.106;18.046;2023-04-26T06:20:55;3.10;;;0.90;;
76729;SDS011;65653;53.106;18.046;2023-04-26T06:23:22;6.90;;;1.00;;
76729;SDS011;65653;53.106;18.046;2023-04-26T06:25:48;3.50;;;0.80;;
76729;SDS011;65653;53.106;18.046;2023-04-26T06:28:15;8.30;;;2.50;;
76729;SDS011;65653;53.106;18.046;2023-04-26T06:30:41;2.60;;;1.00;;
76729;SDS011;65653;53.106;18.046;2023-04-26T06:33:08;1.40;;;0.80;;
76729;SDS011;65653;53.106;18.046;2023-04-26T06:35:38;4.60;;;0.80;;
76729;SDS011;65653;53.106;18.046;2023-04-26T06:38:06;3.50;;;0.60;;
76729;SDS011;65653;53.106;18.046;2023-04-26T06:40:33;3.10;;;0.90;;
76729;SDS011;65653;53.106;18.046;2023-04-26T06:43:02;3.00;;;1.50;;
76729;SDS011;65653;53.106;18.046;2023-04-26T06:45:29;7.80;;;1.60;;
76729;SDS011;65653;53.106;18.046;2023-04-26T06:47:55;5.90;;;0.90;;
76729;SDS011;65653;53.106;18.046;2023-04-26T06:50:23;3.60;;;0.90;;
76729;SDS011;65653;53.106;18.046;2023-04-26T06:52:49;3.70;;;0.80;;
76729;SDS011;65653;53.106;18.046;2023-04-26T06:55:16;5.20;;;1.00;;
76729;SDS011;65653;53.106;18.046;2023-04-26T06:57:44;3.20;;;1.70;;
76729;SDS011;65653;53.106;18.046;2023-04-26T07:00:10;5.50;;;1.30;;
76729;SDS011;65653;53.106;18.046;2023-04-26T07:02:38;3.30;;;0.90;;
76729;SDS011;65653;53.106;18.046;2023-04-26T07:05:05;7.00;;;1.30;;
76729;SDS011;65653;53.106;18.046;2023-04-26T07:07:32;4.20;;;1.10;;
76729;SDS011;65653;53.106;18.046;2023-04-26T07:09:59;3.10;;;0.80;;
76729;SDS011;65653;53.106;18.046;2023-04-26T07:12:25;2.50;;;0.80;;
76729;SDS011;65653;53.106;18.046;2023-04-26T07:14:52;4.30;;;1.60;;
76729;SDS011;65653;53.106;18.046;2023-04-26T07:17:19;4.10;;;1.30;;
76729;SDS011;65653;53.106;18.046;2023-04-26T07:19:46;1.20;;;0.70;;
76729;SDS011;65653;53.106;18.046;2023-04-26T07:22:13;2.50;;;1.00;;
76729;SDS011;65653;53.106;18.046;2023-04-26T07:24:39;3.00;;;1.00;;
76729;SDS011;65653;53.106;18.046;2023-04-26T07:27:06;3.00;;;0.80;;
76729;SDS011;65653;53.106;18.046;2023-04-26T07:29:33;5.10;;;0.90;;
76729;SDS011;65653;53.106;18.046;2023-04-26T07:32:00;1.40;;;0.90;;
76729;SDS011;65653;53.106;18.046;2023-04-26T07:34:26;3.30;;;0.90;;
76729;SDS011;65653;53.106;18.046;2023-04-26T07:36:53;3.80;;;1.30;;
76729;SDS011;65653;53.106;18.046;2023-04-26T07:39:19;2.40;;;0.70;;
76729;SDS011;65653;53.106;18.046;2023-04-26T07:41:46;4.50;;;1.40;;
76729;SDS011;65653;53.106;18.046;2023-04-26T07:44:13;2.70;;;0.90;;
76729;SDS011;65653;53.106;18.046;2023-04-26T07:46:39;3.00;;;1.00;;
76729;SDS011;65653;53.106;18.046;2023-04-26T07:49:06;3.20;;;1.00;;
76729;SDS011;65653;53.106;18.046;2023-04-26T07:51:33;2.00;;;0.50;;
76729;SDS011;65653;53.106;18.046;2023-04-26T07:54:02;2.30;;;0.80;;
76729;SDS011;65653;53.106;18.046;2023-04-26T07:56:28;3.00;;;0.90;;
76729;SDS011;65653;53.106;18.046;2023-04-26T07:58:55;2.20;;;0.60;;
76729;SDS011;65653;53.106;18.046;2023-04-26T08:01:21;4.80;;;0.70;;
76729;SDS011;65653;53.106;18.046;2023-04-26T08:03:48;3.50;;;1.40;;
76729;SDS011;65653;53.106;18.046;2023-04-26T08:06:15;3.20;;;0.80;;
76729;SDS011;65653;53.106;18.046;2023-04-26T08:08:41;2.20;;;0.70;;
76729;SDS011;65653;53.106;18.046;2023-04-26T08:11:14;5.30;;;1.00;;
76729;SDS011;65653;53.106;18.046;2023-04-26T08:13:41;6.00;;;1.40;;
76729;SDS011;65653;53.106;18.046;2023-04-26T08:16:09;1.80;;;0.80;;
76729;SDS011;65653;53.106;18.046;2023-04-26T08:18:36;3.10;;;0.90;;
76729;SDS011;65653;53.106;18.046;2023-04-26T08:21:02;2.70;;;0.80;;
76729;SDS011;65653;53.106;18.046;2023-04-26T08:23:33;3.40;;;1.00;;
76729;SDS011;65653;53.106;18.046;2023-04-26T08:26:03;2.70;;;1.00;;
76729;SDS011;65653;53.106;18.046;2023-04-26T08:28:30;5.10;;;1.20;;
76729;SDS011;65653;53.106;18.046;2023-04-26T08:30:57;4.60;;;1.20;;
76729;SDS011;65653;53.106;18.046;2023-04-26T08:33:23;3.20;;;0.90;;
76729;SDS011;65653;53.106;18.046;2023-04-26T08:35:50;4.10;;;0.90;;
76729;SDS011;65653;53.106;18.046;2023-04-26T08:38:17;2.70;;;0.80;;
76729;SDS011;65653;53.106;18.046;2023-04-26T08:40:44;2.90;;;0.90;;
76729;SDS011;65653;53.106;18.046;2023-04-26T08:43:13;4.30;;;1.10;;
76729;SDS011;65653;53.106;18.046;2023-04-26T08:45:43;3.00;;;1.10;;
76729;SDS011;65653;53.106;18.046;2023-04-26T08:48:12;3.20;;;1.10;;
76729;SDS011;65653;53.106;18.046;2023-04-26T08:50:43;4.00;;;0.90;;
76729;SDS011;65653;53.106;18.046;2023-04-26T08:53:13;1.60;;;0.60;;
76729;SDS011;65653;53.106;18.046;2023-04-26T08:55:46;2.10;;;0.70;;
76729;SDS011;65653;53.106;18.046;2023-04-26T08:58:14;3.60;;;1.30;;
76729;SDS011;65653;53.106;18.046;2023-04-26T09:00:43;5.30;;;1.10;;
76729;SDS011;65653;53.106;18.046;2023-04-26T09:03:11;1.20;;;0.60;;
76729;SDS011;65653;53.106;18.046;2023-04-26T09:05:41;3.20;;;0.70;;
76729;SDS011;65653;53.106;18.046;2023-04-26T09:08:12;3.80;;;1.20;;
76729;SDS011;65653;53.106;18.046;2023-04-26T09:10:43;2.30;;;1.00;;
76729;SDS011;65653;53.106;18.046;2023-04-26T09:13:10;4.20;;;0.70;;
76729;SDS011;65653;53.106;18.046;2023-04-26T09:15:37;2.30;;;1.00;;
76729;SDS011;65653;53.106;18.046;2023-04-26T09:18:20;4.00;;;1.30;;
76729;SDS011;65653;53.106;18.046;2023-04-26T09:21:04;4.00;;;1.10;;
76729;SDS011;65653;53.106;18.046;2023-04-26T09:23:32;3.10;;;0.90;;
76729;SDS011;65653;53.106;18.046;2023-04-26T09:26:16;4.20;;;1.10;;
76729;SDS011;65653;53.106;18.046;2023-04-26T09:28:44;1.50;;;0.60;;
76729;SDS011;65653;53.106;18.046;2023-04-26T09:31:13;5.10;;;0.80;;
76729;SDS011;65653;53.106;18.046;2023-04-26T09:34:01;4.40;;;0.90;;
76729;SDS011;65653;53.106;18.046;2023-04-26T09:36:28;2.10;;;0.80;;
76729;SDS011;65653;53.106;18.046;2023-04-26T09:38:55;1.80;;;0.60;;
76729;SDS011;65653;53.106;18.046;2023-04-26T09:41:21;2.70;;;0.80;;
76729;SDS011;65653;53.106;18.046;2023-04-26T09:43:49;4.70;;;1.20;;
76729;SDS011;65653;53.106;18.046;2023-04-26T09:46:21;7.80;;;1.00;;
76729;SDS011;65653;53.106;18.046;2023-04-26T09:49:00;2.80;;;1.00;;
76729;SDS011;65653;53.106;18.046;2023-04-26T09:51:28;1.00;;;0.70;;
76729;SDS011;65653;53.106;18.046;2023-04-26T09:53:55;3.80;;;0.90;;
76729;SDS011;65653;53.106;18.046;2023-04-26T09:56:21;3.80;;;0.90;;
76729;SDS011;65653;53.106;18.046;2023-04-26T09:58:55;3.00;;;0.80;;
76729;SDS011;65653;53.106;18.046;2023-04-26T10:03:51;4.20;;;0.90;;
76729;SDS011;65653;53.106;18.046;2023-04-26T10:06:18;7.40;;;1.10;;
76729;SDS011;65653;53.106;18.046;2023-04-26T10:08:45;3.70;;;0.90;;
76729;SDS011;65653;53.106;18.046;2023-04-26T10:11:12;1.70;;;0.70;;
76729;SDS011;65653;53.106;18.046;2023-04-26T10:13:40;3.60;;;1.20;;
76729;SDS011;65653;53.106;18.046;2023-04-26T10:16:08;3.70;;;1.10;;
76729;SDS011;65653;53.106;18.046;2023-04-26T10:18:35;3.80;;;1.20;;
76729;SDS011;65653;53.106;18.046;2023-04-26T10:21:06;2.90;;;1.20;;
76729;SDS011;65653;53.106;18.046;2023-04-26T10:23:37;2.40;;;1.00;;
76729;SDS011;65653;53.106;18.046;2023-04-26T10:26:06;1.80;;;1.00;;
76729;SDS011;65653;53.106;18.046;2023-04-26T10:28:53;4.40;;;1.20;;
76729;SDS011;65653;53.106;18.046;2023-04-26T10:31:21;3.10;;;1.10;;
76729;SDS011;65653;53.106;18.046;2023-04-26T10:34:16;4.80;;;1.00;;
76729;SDS011;65653;53.106;18.046;2023-04-26T10:39:43;1.60;;;0.80;;
76729;SDS011;65653;53.106;18.046;2023-04-26T10:42:17;3.40;;;0.80;;
76729;SDS011;65653;53.106;18.046;2023-04-26T10:44:51;3.80;;;0.90;;
76729;SDS011;65653;53.106;18.046;2023-04-26T10:47:22;1.40;;;0.70;;
76729;SDS011;65653;53.106;18.046;2023-04-26T10:49:52;4.90;;;1.00;;
76729;SDS011;65653;53.106;18.046;2023-04-26T10:52:27;2.80;;;0.70;;
76729;SDS011;65653;53.106;18.046;2023-04-26T10:54:54;2.60;;;0.80;;
76729;SDS011;65653;53.106;18.046;2023-04-26T10:57:24;2.90;;;0.80;;
76729;SDS011;65653;53.106;18.046;2023-04-26T11:00:16;2.20;;;0.70;;
76729;SDS011;65653;53.106;18.046;2023-04-26T11:02:43;2.50;;;0.90;;
76729;SDS011;65653;53.106;18.046;2023-04-26T11:05:10;7.30;;;1.60;;
76729;SDS011;65653;53.106;18.046;2023-04-26T11:07:37;4.40;;;1.10;;
76729;SDS011;65653;53.106;18.046;2023-04-26T11:10:07;4.20;;;1.40;;
76729;SDS011;65653;53.106;18.046;2023-04-26T11:12:35;3.20;;;0.90;;
76729;SDS011;65653;53.106;18.046;2023-04-26T11:15:02;3.10;;;1.20;;
76729;SDS011;65653;53.106;18.046;2023-04-26T11:17:35;3.00;;;1.10;;
76729;SDS011;65653;53.106;18.046;2023-04-26T11:20:09;4.00;;;0.80;;
76729;SDS011;65653;53.106;18.046;2023-04-26T11:22:41;3.20;;;1.00;;
76729;SDS011;65653;53.106;18.046;2023-04-26T11:25:07;2.90;;;0.90;;
76729;SDS011;65653;53.106;18.046;2023-04-26T11:27:34;2.80;;;0.60;;
76729;SDS011;65653;53.106;18.046;2023-04-26T11:30:02;3.20;;;0.70;;
76729;SDS011;65653;53.106;18.046;2023-04-26T11:32:30;2.60;;;0.70;;
76729;SDS011;65653;53.106;18.046;2023-04-26T11:34:58;2.20;;;0.80;;
76729;SDS011;65653;53.106;18.046;2023-04-26T11:37:26;3.40;;;0.90;;
76729;SDS011;65653;53.106;18.046;2023-04-26T11:39:53;2.40;;;0.80;;
76729;SDS011;65653;53.106;18.046;2023-04-26T11:42:25;3.60;;;1.10;;
76729;SDS011;65653;53.106;18.046;2023-04-26T11:44:52;5.00;;;1.10;;
76729;SDS011;65653;53.106;18.046;2023-04-26T11:47:21;3.80;;;1.00;;
76729;SDS011;65653;53.106;18.046;2023-04-26T11:49:48;2.40;;;0.80;;
76729;SDS011;65653;53.106;18.046;2023-04-26T11:52:15;2.10;;;0.90;;
76729;SDS011;65653;53.106;18.046;2023-04-26T11:54:42;2.70;;;1.20;;
76729;SDS011;65653;53.106;18.046;2023-04-26T11:57:13;8.10;;;0.90;;
76729;SDS011;65653;53.106;18.046;2023-04-26T11:59:40;2.60;;;1.00;;
76729;SDS011;65653;53.106;18.046;2023-04-26T12:02:07;2.70;;;0.70;;
76729;SDS011;65653;53.106;18.046;2023-04-26T12:04:36;3.90;;;1.50;;
76729;SDS011;65653;53.106;18.046;2023-04-26T12:07:04;3.10;;;1.00;;
76729;SDS011;65653;53.106;18.046;2023-04-26T12:09:32;2.20;;;1.10;;
76729;SDS011;65653;53.106;18.046;2023-04-26T12:12:00;3.70;;;1.10;;
76729;SDS011;65653;53.106;18.046;2023-04-26T12:14:34;2.30;;;0.70;;
76729;SDS011;65653;53.106;18.046;2023-04-26T12:17:05;3.80;;;1.00;;
76729;SDS011;65653;53.106;18.046;2023-04-26T12:19:33;1.10;;;0.80;;
76729;SDS011;65653;53.106;18.046;2023-04-26T12:22:02;3.00;;;0.90;;
76729;SDS011;65653;53.106;18.046;2023-04-26T12:24:30;2.50;;;0.90;;
76729;SDS011;65653;53.106;18.046;2023-04-26T12:27:02;3.50;;;1.10;;
76729;SDS011;65653;53.106;18.046;2023-04-26T12:29:32;4.40;;;1.00;;
76729;SDS011;65653;53.106;18.046;2023-04-26T12:31:59;3.30;;;1.00;;
76729;SDS011;65653;53.106;18.046;2023-04-26T12:34:26;3.70;;;1.10;;
76729;SDS011;65653;53.106;18.046;2023-04-26T12:36:53;3.70;;;1.30;;
76729;SDS011;65653;53.106;18.046;2023-04-26T12:39:20;3.10;;;0.90;;
76729;SDS011;65653;53.106;18.046;2023-04-26T12:41:46;2.20;;;0.90;;
76729;SDS011;65653;53.106;18.046;2023-04-26T12:44:13;2.00;;;0.80;;
76729;SDS011;65653;53.106;18.046;2023-04-26T12:46:39;3.10;;;0.90;;
76729;SDS011;65653;53.106;18.046;2023-04-26T12:49:06;2.50;;;0.60;;
76729;SDS011;65653;53.106;18.046;2023-04-26T12:51:33;1.80;;;0.70;;
76729;SDS011;65653;53.106;18.046;2023-04-26T12:54:00;1.80;;;0.70;;
76729;SDS011;65653;53.106;18.046;2023-04-26T12:56:28;3.70;;;0.90;;
76729;SDS011;65653;53.106;18.046;2023-04-26T12:58:55;3.00;;;0.80;;
76729;SDS011;65653;53.106;18.046;2023-04-26T13:01:21;2.80;;;0.70;;
76729;SDS011;65653;53.106;18.046;2023-04-26T13:03:48;6.60;;;0.90;;
76729;SDS011;65653;53.106;18.046;2023-04-26T13:06:15;1.40;;;0.60;;
76729;SDS011;65653;53.106;18.046;2023-04-26T13:08:43;2.90;;;0.90;;
76729;SDS011;65653;53.106;18.046;2023-04-26T13:11:10;2.60;;;0.90;;
76729;SDS011;65653;53.106;18.046;2023-04-26T13:13:36;4.00;;;0.50;;
76729;SDS011;65653;53.106;18.046;2023-04-26T13:16:03;2.40;;;0.40;;
76729;SDS011;65653;53.106;18.046;2023-04-26T13:18:30;2.40;;;1.10;;
76729;SDS011;65653;53.106;18.046;2023-04-26T13:20:56;1.30;;;0.60;;
76729;SDS011;65653;53.106;18.046;2023-04-26T13:23:23;2.90;;;0.80;;
76729;SDS011;65653;53.106;18.046;2023-04-26T13:25:49;4.00;;;1.00;;
76729;SDS011;65653;53.106;18.046;2023-04-26T13:28:16;4.80;;;1.10;;
76729;SDS011;65653;53.106;18.046;2023-04-26T13:30:42;1.80;;;0.70;;
76729;SDS011;65653;53.106;18.046;2023-04-26T13:33:09;2.10;;;0.80;;
76729;SDS011;65653;53.106;18.046;2023-04-26T13:35:36;3.00;;;1.10;;
76729;SDS011;65653;53.106;18.046;2023-04-26T13:38:02;4.10;;;0.70;;
76729;SDS011;65653;53.106;18.046;2023-04-26T13:40:29;5.60;;;1.40;;
76729;SDS011;65653;53.106;18.046;2023-04-26T13:42:56;2.60;;;0.60;;
76729;SDS011;65653;53.106;18.046;2023-04-26T13:45:23;2.10;;;0.80;;
76729;SDS011;65653;53.106;18.046;2023-04-26T13:47:49;2.60;;;0.50;;
76729;SDS011;65653;53.106;18.046;2023-04-26T13:50:16;1.90;;;0.60;;
76729;SDS011;65653;53.106;18.046;2023-04-26T13:52:44;3.10;;;1.00;;
76729;SDS011;65653;53.106;18.046;2023-04-26T13:55:11;2.60;;;0.70;;
76729;SDS011;65653;53.106;18.046;2023-04-26T13:57:37;2.50;;;0.50;;
76729;SDS011;65653;53.106;18.046;2023-04-26T14:00:05;1.60;;;0.60;;
76729;SDS011;65653;53.106;18.046;2023-04-26T14:02:33;2.90;;;0.40;;
76729;SDS011;65653;53.106;18.046;2023-04-26T14:05:00;2.40;;;0.90;;
76729;SDS011;65653;53.106;18.046;2023-04-26T14:07:26;2.80;;;1.00;;
76729;SDS011;65653;53.106;18.046;2023-04-26T14:09:53;3.90;;;1.00;;
76729;SDS011;65653;53.106;18.046;2023-04-26T14:12:20;2.90;;;0.80;;
76729;SDS011;65653;53.106;18.046;2023-04-26T14:14:47;2.30;;;0.60;;
76729;SDS011;65653;53.106;18.046;2023-04-26T14:17:13;1.10;;;0.70;;
76729;SDS011;65653;53.106;18.046;2023-04-26T14:19:40;1.60;;;0.50;;
76729;SDS011;65653;53.106;18.046;2023-04-26T14:22:09;2.40;;;0.60;;
76729;SDS011;65653;53.106;18.046;2023-04-26T14:24:37;1.20;;;0.80;;
76729;SDS011;65653;53.106;18.046;2023-04-26T14:27:04;2.70;;;0.70;;
76729;SDS011;65653;53.106;18.046;2023-04-26T14:29:31;2.40;;;0.80;;
76729;SDS011;65653;53.106;18.046;2023-04-26T14:31:58;3.30;;;0.70;;
76729;SDS011;65653;53.106;18.046;2023-04-26T14:34:24;1.00;;;0.60;;
76729;SDS011;65653;53.106;18.046;2023-04-26T14:36:51;1.30;;;0.50;;
76729;SDS011;65653;53.106;18.046;2023-04-26T14:39:18;2.30;;;1.00;;
76729;SDS011;65653;53.106;18.046;2023-04-26T14:41:44;3.50;;;0.90;;
76729;SDS011;65653;53.106;18.046;2023-04-26T14:44:11;4.50;;;0.90;;